createdAt,value
2019-02-16T00:00:13.940Z,25.07
2019-02-16T00:02:42.452Z,27.93
2019-02-16T00:05:10.905Z,25.33
2019-02-16T00:07:40.054Z,22.23
2019-02-16T00:10:08.601Z,21.73
2019-02-16T00:12:36.932Z,22.83
2019-02-16T00:15:08.679Z,23.30
2019-02-16T00:17:37.223Z,24.23
2019-02-16T00:20:08.555Z,19.93
2019-02-16T00:22:37.262Z,16.47
2019-02-16T00:25:06.414Z,22.80
2019-02-16T00:27:35.294Z,21.67
2019-02-16T00:30:05.516Z,25.37
2019-02-16T00:32:37.033Z,24.33
2019-02-16T00:35:08.667Z,23.97
2019-02-16T00:37:37.088Z,19.80
2019-02-16T00:40:09.942Z,30.77
2019-02-16T00:42:38.815Z,28.73
2019-02-16T00:45:08.531Z,26.07
2019-02-16T00:47:37.297Z,23.60
2019-02-16T00:50:06.205Z,24.30
2019-02-16T00:52:34.627Z,23.87
2019-02-16T00:55:03.552Z,20.77
2019-02-16T00:57:32.284Z,27.07
2019-02-16T01:00:01.293Z,26.23
2019-02-16T01:02:31.290Z,25.10
2019-02-16T01:05:00.302Z,24.00
2019-02-16T01:07:28.803Z,24.67
2019-02-16T01:09:57.557Z,23.67
2019-02-16T01:12:26.321Z,25.20
2019-02-16T01:14:54.779Z,23.67
2019-02-16T01:17:23.305Z,21.83
2019-02-16T01:19:54.038Z,25.10
2019-02-16T01:22:22.392Z,23.27
2019-02-16T01:24:50.746Z,24.00
2019-02-16T01:27:19.183Z,23.63
2019-02-16T01:29:48.070Z,24.83
2019-02-16T01:32:16.726Z,22.03
2019-02-16T01:34:45.157Z,19.37
2019-02-16T01:37:14.029Z,25.20
2019-02-16T01:39:42.656Z,27.90
2019-02-16T01:42:11.228Z,22.50
2019-02-16T01:44:39.821Z,22.97
2019-02-16T01:47:08.452Z,23.13
2019-02-16T01:49:38.065Z,20.00
2019-02-16T01:52:06.744Z,28.50
2019-02-16T01:54:35.258Z,22.83
2019-02-16T01:57:04.991Z,26.90
2019-02-16T01:59:33.350Z,23.27
2019-02-16T02:02:04.214Z,21.20
2019-02-16T02:04:32.561Z,22.57
2019-02-16T02:07:01.018Z,23.37
2019-02-16T02:09:29.374Z,28.37
2019-02-16T02:11:57.827Z,17.97
2019-02-16T02:14:26.187Z,24.57
2019-02-16T02:16:57.511Z,24.70
2019-02-16T02:19:26.021Z,25.90
2019-02-16T02:21:54.414Z,27.73
2019-02-16T02:24:22.774Z,21.83
2019-02-16T02:26:51.158Z,22.57
2019-02-16T02:29:19.516Z,26.00
2019-02-16T02:31:47.899Z,20.40
2019-02-16T02:34:16.251Z,24.60
2019-02-16T02:36:44.712Z,21.13
2019-02-16T02:39:13.062Z,21.13
2019-02-16T02:41:41.450Z,26.93
2019-02-16T02:44:09.809Z,20.13
2019-02-16T02:46:38.211Z,25.03
2019-02-16T02:49:06.561Z,20.73
2019-02-16T02:51:34.926Z,27.80
2019-02-16T02:54:03.313Z,23.23
2019-02-16T02:56:31.661Z,24.20
2019-02-16T02:59:00.047Z,21.53
2019-02-16T03:01:28.410Z,22.13
2019-02-16T03:03:56.798Z,23.93
2019-02-16T03:06:25.160Z,24.27
2019-02-16T03:08:53.555Z,22.40
2019-02-16T03:11:21.908Z,25.13
2019-02-16T03:13:50.289Z,21.63
2019-02-16T03:16:18.654Z,21.77
2019-02-16T03:18:47.186Z,21.83
2019-02-16T03:21:15.484Z,20.00
2019-02-16T03:23:43.877Z,20.83
2019-02-16T03:26:32.211Z,23.33
2019-02-16T03:29:15.626Z,25.83
2019-02-16T03:32:03.908Z,21.17
2019-02-16T03:34:41.200Z,21.77
2019-02-16T03:37:27.948Z,22.10
2019-02-16T03:39:56.328Z,19.90
2019-02-16T03:42:24.687Z,22.10
2019-02-16T03:44:53.123Z,19.50
2019-02-16T03:47:21.441Z,18.23
2019-02-16T03:49:49.822Z,22.73
2019-02-16T03:52:18.191Z,20.57
2019-02-16T03:54:46.741Z,27.37
2019-02-16T03:57:15.112Z,18.83
2019-02-16T03:59:43.496Z,19.30
2019-02-16T04:02:11.843Z,22.87
2019-02-16T04:04:40.297Z,22.23
2019-02-16T04:07:08.660Z,22.13
2019-02-16T04:09:37.051Z,21.37
2019-02-16T04:12:05.400Z,16.83
2019-02-16T04:14:33.786Z,25.67
2019-02-16T04:17:02.154Z,19.50
2019-02-16T04:19:30.532Z,19.60
2019-02-16T04:21:58.888Z,19.73
2019-02-16T04:24:27.292Z,20.80
2019-02-16T04:26:55.642Z,19.73
2019-02-16T04:29:24.031Z,17.20
2019-02-16T04:31:52.390Z,19.43
2019-02-16T04:34:20.746Z,17.57
2019-02-16T04:36:49.131Z,17.40
2019-02-16T04:39:17.484Z,19.70
2019-02-16T04:41:45.873Z,21.77
2019-02-16T04:44:14.225Z,22.90
2019-02-16T04:46:42.621Z,20.00
2019-02-16T04:49:10.997Z,18.50
2019-02-16T04:51:39.379Z,17.90
2019-02-16T04:54:07.736Z,20.40
2019-02-16T04:56:36.122Z,21.90
2019-02-16T04:59:04.562Z,22.43
2019-02-16T05:01:32.954Z,20.77
2019-02-16T05:04:01.305Z,22.77
2019-02-16T05:06:29.690Z,22.10
2019-02-16T05:08:58.045Z,20.73
2019-02-16T05:11:26.439Z,18.40
2019-02-16T05:13:54.797Z,23.50
2019-02-16T05:16:23.195Z,18.97
2019-02-16T05:18:51.554Z,21.70
2019-02-16T05:21:19.959Z,19.73
2019-02-16T05:23:48.306Z,18.33
2019-02-16T05:26:16.755Z,16.87
2019-02-16T05:28:45.127Z,18.83
2019-02-16T05:31:13.521Z,21.27
2019-02-16T05:33:41.868Z,18.63
2019-02-16T05:36:10.257Z,17.63
2019-02-16T05:38:38.622Z,19.00
2019-02-16T05:41:07.013Z,17.67
2019-02-16T05:43:35.369Z,23.03
2019-02-16T05:46:03.759Z,19.53
2019-02-16T05:48:32.122Z,23.93
2019-02-16T05:51:00.795Z,23.00
2019-02-16T05:53:29.142Z,20.00
2019-02-16T05:55:57.499Z,19.70
2019-02-16T05:58:25.892Z,23.10
2019-02-16T06:00:54.247Z,23.60
2019-02-16T06:03:22.634Z,18.77
2019-02-16T06:05:50.983Z,16.97
2019-02-16T06:08:19.376Z,21.07
2019-02-16T06:10:47.741Z,17.77
2019-02-16T06:13:16.133Z,21.60
2019-02-16T06:15:44.485Z,20.10
2019-02-16T06:18:12.876Z,20.33
2019-02-16T06:20:41.237Z,21.50
2019-02-16T06:23:09.622Z,24.97
2019-02-16T06:25:37.999Z,22.57
2019-02-16T06:28:06.386Z,18.73
2019-02-16T06:30:34.746Z,23.67
2019-02-16T06:33:03.125Z,26.83
2019-02-16T06:35:33.127Z,22.47
2019-02-16T06:38:02.073Z,21.67
2019-02-16T06:40:30.442Z,20.83
2019-02-16T06:42:58.914Z,19.07
2019-02-16T06:45:27.270Z,20.90
2019-02-16T06:47:55.667Z,23.47
2019-02-16T06:50:24.207Z,25.30
2019-02-16T06:52:52.587Z,19.97
2019-02-16T06:55:24.061Z,20.33
2019-02-16T06:57:52.530Z,21.17
2019-02-16T07:00:22.530Z,19.90
2019-02-16T07:02:52.177Z,17.90
2019-02-16T07:05:26.228Z,20.43
2019-02-16T07:07:54.756Z,19.80
2019-02-16T07:10:23.108Z,16.97
2019-02-16T07:12:51.470Z,21.03
2019-02-16T07:15:19.857Z,24.57
2019-02-16T07:17:49.863Z,18.77
2019-02-16T07:20:20.100Z,16.33
2019-02-16T07:22:48.456Z,20.93
2019-02-16T07:25:17.093Z,19.77
2019-02-16T07:27:45.717Z,22.70
2019-02-16T07:30:14.119Z,21.37
2019-02-16T07:32:42.618Z,17.97
2019-02-16T07:35:11.188Z,19.87
2019-02-16T07:37:39.553Z,21.90
2019-02-16T07:40:14.269Z,23.40
2019-02-16T07:42:50.622Z,20.27
2019-02-16T07:45:23.267Z,26.97
2019-02-16T07:47:58.167Z,21.27
2019-02-16T07:50:38.506Z,22.47
2019-02-16T07:53:11.237Z,57.80
2019-02-16T07:55:43.759Z,41.00
2019-02-16T07:58:16.492Z,33.10
2019-02-16T08:00:46.525Z,32.10
2019-02-16T08:03:25.429Z,53.50
2019-02-16T08:05:57.871Z,29.33
2019-02-16T08:08:27.946Z,30.30
2019-02-16T08:11:14.414Z,26.20
2019-02-16T08:13:47.822Z,26.87
2019-02-16T08:16:17.896Z,28.73
2019-02-16T08:18:47.861Z,23.17
2019-02-16T08:21:34.032Z,24.03
2019-02-16T08:24:04.028Z,23.80
2019-02-16T08:26:42.758Z,22.50
2019-02-16T08:29:21.273Z,20.77
2019-02-16T08:32:06.151Z,26.70
2019-02-16T08:34:42.237Z,26.57
2019-02-16T08:37:15.031Z,25.10
2019-02-16T08:39:47.744Z,22.57
2019-02-16T08:42:30.098Z,22.87
2019-02-16T08:45:04.961Z,18.30
2019-02-16T08:47:37.095Z,20.70
2019-02-16T08:50:11.266Z,18.23
2019-02-16T08:52:43.220Z,17.00
2019-02-16T08:55:13.213Z,18.80
2019-02-16T08:57:46.203Z,18.77
2019-02-16T09:00:33.154Z,21.30
2019-02-16T09:03:23.021Z,17.27
2019-02-16T09:05:59.120Z,21.07
2019-02-16T09:08:42.752Z,16.80
2019-02-16T09:11:13.673Z,16.50
2019-02-16T09:13:48.536Z,17.93
2019-02-16T09:16:38.496Z,16.93
2019-02-16T09:19:08.633Z,19.67
2019-02-16T09:21:40.548Z,18.40
2019-02-16T09:24:13.671Z,18.77
2019-02-16T09:26:58.894Z,19.63
2019-02-16T09:29:31.530Z,19.40
2019-02-16T09:32:10.370Z,19.40
2019-02-16T09:34:45.013Z,22.47
2019-02-16T09:37:19.804Z,18.90
2019-02-16T09:39:51.686Z,18.53
2019-02-16T09:42:44.771Z,19.47
2019-02-16T09:45:18.271Z,21.83
2019-02-16T09:47:50.543Z,20.40
2019-02-16T09:50:39.535Z,19.37
2019-02-16T09:53:10.031Z,22.10
2019-02-16T09:55:56.456Z,21.27
2019-02-16T09:58:26.498Z,19.60
2019-02-16T10:01:02.212Z,24.03
2019-02-16T10:03:35.238Z,18.80
2019-02-16T10:06:14.270Z,21.47
2019-02-16T10:08:50.114Z,18.23
2019-02-16T10:11:28.919Z,19.10
2019-02-16T10:14:15.330Z,22.53
2019-02-16T10:16:50.855Z,19.67
2019-02-16T10:19:20.883Z,20.70
2019-02-16T10:22:02.577Z,22.13
2019-02-16T10:24:48.452Z,24.77
2019-02-16T10:27:18.464Z,21.37
2019-02-16T10:29:57.344Z,24.30
2019-02-16T10:32:34.037Z,24.20
2019-02-16T10:35:13.305Z,26.00
2019-02-16T10:37:48.561Z,24.20
2019-02-16T10:40:29.418Z,26.90
2019-02-16T10:43:03.669Z,22.63
2019-02-16T10:45:55.552Z,23.40
2019-02-16T10:48:29.244Z,22.40
2019-02-16T10:51:01.765Z,22.30
2019-02-16T10:53:37.099Z,23.27
2019-02-16T10:56:14.509Z,23.83
2019-02-16T10:58:44.533Z,20.43
2019-02-16T11:01:25.137Z,27.60
2019-02-16T11:03:55.160Z,25.27
2019-02-16T11:06:28.575Z,24.63
2019-02-16T11:09:04.870Z,26.20
2019-02-16T11:11:50.851Z,21.60
2019-02-16T11:14:25.509Z,23.03
2019-02-16T11:17:04.565Z,22.43
2019-02-16T11:19:36.189Z,23.90
2019-02-16T11:22:17.997Z,25.03
2019-02-16T11:24:48.529Z,20.43
2019-02-16T11:27:30.157Z,24.43
2019-02-16T11:30:08.964Z,23.80
2019-02-16T11:32:50.964Z,24.30
2019-02-16T11:35:30.291Z,23.83
2019-02-16T11:38:01.895Z,28.07
2019-02-16T11:40:36.763Z,20.40
2019-02-16T11:43:22.052Z,25.87
2019-02-16T11:45:52.144Z,20.33
2019-02-16T11:48:22.142Z,23.50
2019-02-16T11:50:57.894Z,25.90
2019-02-16T11:53:31.504Z,26.00
2019-02-16T11:56:07.978Z,27.13
2019-02-16T11:58:44.760Z,27.80
2019-02-16T12:01:25.035Z,23.40
2019-02-16T12:04:10.038Z,28.77
2019-02-16T12:06:43.102Z,41.33
2019-02-16T12:09:30.517Z,31.93
2019-02-16T12:12:09.995Z,28.50
2019-02-16T12:14:40.210Z,29.20
2019-02-16T12:17:16.151Z,26.37
2019-02-16T12:19:51.880Z,27.50
2019-02-16T12:22:22.066Z,29.57
2019-02-16T12:25:04.705Z,30.37
2019-02-16T12:27:42.075Z,31.07
2019-02-16T12:30:28.345Z,40.03
2019-02-16T12:33:01.322Z,37.20
2019-02-16T12:35:31.319Z,40.30
2019-02-16T12:38:19.200Z,39.20
2019-02-16T12:40:52.432Z,38.37
2019-02-16T12:43:40.215Z,37.30
2019-02-16T12:46:13.542Z,38.87
2019-02-16T12:48:53.137Z,40.60
2019-02-16T12:51:23.170Z,35.73
2019-02-16T12:54:09.774Z,32.63
2019-02-16T12:56:45.563Z,31.27
2019-02-16T12:59:21.478Z,31.37
2019-02-16T13:01:51.844Z,29.80
2019-02-16T13:04:24.656Z,36.73
2019-02-16T13:06:59.507Z,36.03
2019-02-16T13:09:29.512Z,31.17
2019-02-16T13:12:17.971Z,32.23
2019-02-16T13:14:47.969Z,29.77
2019-02-16T13:17:23.998Z,35.33
2019-02-16T13:20:12.332Z,30.17
2019-02-16T13:22:42.493Z,28.93
2019-02-16T13:25:24.441Z,25.80
2019-02-16T13:27:56.764Z,31.60
2019-02-16T13:30:29.683Z,26.67
2019-02-16T13:33:08.552Z,27.53
2019-02-16T13:35:46.140Z,27.33
2019-02-16T13:38:16.162Z,27.83
2019-02-16T13:40:46.398Z,26.93
2019-02-16T13:43:22.216Z,29.73
2019-02-16T13:46:09.411Z,26.97
2019-02-16T13:48:45.383Z,32.87
2019-02-16T13:51:21.452Z,29.63
2019-02-16T13:53:54.346Z,29.60
2019-02-16T13:56:36.521Z,37.73
2019-02-16T13:59:23.195Z,29.87
2019-02-16T14:02:08.389Z,32.77
2019-02-16T14:04:38.659Z,27.90
2019-02-16T14:07:08.763Z,29.27
2019-02-16T14:09:38.796Z,31.40
2019-02-16T14:12:23.806Z,31.90
2019-02-16T14:15:03.013Z,33.00
2019-02-16T14:17:39.257Z,35.03
2019-02-16T14:20:08.649Z,32.57
2019-02-16T14:22:39.627Z,34.40
2019-02-16T14:25:10.393Z,31.27
2019-02-16T14:27:38.818Z,37.40
2019-02-16T14:30:12.219Z,37.47
2019-02-16T14:32:40.646Z,33.03
2019-02-16T14:35:09.641Z,32.37
2019-02-16T14:37:45.925Z,28.90
2019-02-16T14:40:14.375Z,28.73
2019-02-16T14:42:42.937Z,27.97
2019-02-16T14:45:13.835Z,27.67
2019-02-16T14:47:42.687Z,24.30
2019-02-16T14:50:12.561Z,24.10
2019-02-16T14:52:40.965Z,28.17
2019-02-16T14:55:12.592Z,29.07
2019-02-16T14:57:41.097Z,23.80
2019-02-16T15:00:11.895Z,25.20
2019-02-16T15:02:40.250Z,29.57
2019-02-16T15:05:09.883Z,30.97
2019-02-16T15:07:41.067Z,26.57
2019-02-16T15:10:13.869Z,26.70
2019-02-16T15:12:42.226Z,26.77
2019-02-16T15:15:13.267Z,29.57
2019-02-16T15:17:41.693Z,24.13
2019-02-16T15:20:17.164Z,27.53
2019-02-16T15:22:45.925Z,27.17
2019-02-16T15:25:14.305Z,26.53
2019-02-16T15:27:42.848Z,27.33
2019-02-16T15:30:17.187Z,28.27
2019-02-16T15:32:46.199Z,24.97
2019-02-16T15:35:14.630Z,30.10
2019-02-16T15:37:45.971Z,28.33
2019-02-16T15:40:14.301Z,29.87
2019-02-16T15:42:43.028Z,29.13
2019-02-16T15:45:13.451Z,30.33
2019-02-16T15:47:41.911Z,27.07
2019-02-16T15:50:12.863Z,28.53
2019-02-16T15:52:41.434Z,27.00
2019-02-16T15:55:12.091Z,28.07
2019-02-16T15:57:40.631Z,27.93
2019-02-16T16:00:13.465Z,28.90
2019-02-16T16:02:42.062Z,29.57
2019-02-16T16:05:10.485Z,30.40
2019-02-16T16:07:41.825Z,29.10
2019-02-16T16:10:28.689Z,30.33
2019-02-16T16:13:04.442Z,27.20
2019-02-16T16:15:43.115Z,27.37
2019-02-16T16:18:29.979Z,30.17
2019-02-16T16:21:03.119Z,27.03
2019-02-16T16:23:36.613Z,26.93
2019-02-16T16:26:19.137Z,26.97
2019-02-16T16:29:01.777Z,24.27
2019-02-16T16:31:34.773Z,24.63
2019-02-16T16:34:13.315Z,25.80
2019-02-16T16:36:55.493Z,32.20
2019-02-16T16:39:27.982Z,39.20
2019-02-16T16:41:58.041Z,30.33
2019-02-16T16:44:30.917Z,27.43
2019-02-16T16:47:18.772Z,31.53
2019-02-16T16:49:54.292Z,34.33
2019-02-16T16:52:29.817Z,31.80
2019-02-16T16:55:08.353Z,31.10
2019-02-16T16:57:47.352Z,36.00
2019-02-16T17:00:17.510Z,31.43
2019-02-16T17:02:53.275Z,34.70
2019-02-16T17:05:25.995Z,120.07
2019-02-16T17:08:01.989Z,48.53
2019-02-16T17:10:46.672Z,39.03
2019-02-16T17:13:34.711Z,35.73
2019-02-16T17:16:10.753Z,31.80
2019-02-16T17:18:43.536Z,95.30
2019-02-16T17:21:19.015Z,36.13
2019-02-16T17:23:49.097Z,29.53
2019-02-16T17:26:19.087Z,28.40
2019-02-16T17:29:04.137Z,25.67
2019-02-16T17:31:37.658Z,26.63
2019-02-16T17:34:26.139Z,31.83
2019-02-16T17:37:00.223Z,29.13
2019-02-16T17:39:46.408Z,34.27
2019-02-16T17:42:16.422Z,38.43
2019-02-16T17:44:52.106Z,38.77
2019-02-16T17:47:38.409Z,37.50
2019-02-16T17:50:10.475Z,38.13
2019-02-16T17:52:55.879Z,33.83
2019-02-16T17:55:31.675Z,31.47
2019-02-16T17:58:04.679Z,32.17
2019-02-16T18:00:36.299Z,36.23
2019-02-16T18:03:14.271Z,33.97
2019-02-16T18:05:50.933Z,30.90
2019-02-16T18:08:37.492Z,31.87
2019-02-16T18:11:15.847Z,33.40
2019-02-16T18:14:04.381Z,30.23
2019-02-16T18:16:40.817Z,31.13
2019-02-16T18:19:10.854Z,31.30
2019-02-16T18:21:42.704Z,32.73
2019-02-16T18:24:18.612Z,32.03
2019-02-16T18:26:56.300Z,38.07
2019-02-16T18:29:21.009Z,35.60
2019-02-16T18:32:03.306Z,32.17
2019-02-16T18:34:59.422Z,31.07
2019-02-16T18:37:36.844Z,33.50
2019-02-16T18:40:07.733Z,30.80
2019-02-16T18:42:56.193Z,33.23
2019-02-16T18:45:42.240Z,36.43
2019-02-16T18:48:18.292Z,37.80
2019-02-16T18:50:57.905Z,38.87
2019-02-16T18:53:42.878Z,38.43
2019-02-16T18:56:14.066Z,35.63
2019-02-16T18:59:00.385Z,34.07
2019-02-16T19:01:46.758Z,41.27
2019-02-16T19:04:22.675Z,43.90
2019-02-16T19:07:04.785Z,42.03
2019-02-16T19:09:34.899Z,65.70
2019-02-16T19:12:08.482Z,105.13
2019-02-16T19:14:38.536Z,55.33
2019-02-16T19:17:20.368Z,79.77
2019-02-16T19:19:56.296Z,79.40
2019-02-16T19:22:26.294Z,77.77
2019-02-16T19:24:56.291Z,63.87
2019-02-16T19:27:42.645Z,56.37
2019-02-16T19:30:12.815Z,49.07
2019-02-16T19:32:55.001Z,49.83
2019-02-16T19:35:25.354Z,42.07
2019-02-16T19:38:11.603Z,36.40
2019-02-16T19:40:47.656Z,40.63
2019-02-16T19:43:23.800Z,36.33
2019-02-16T19:45:53.817Z,37.10
2019-02-16T19:48:23.814Z,37.03
2019-02-16T19:50:53.845Z,38.67
2019-02-16T19:53:43.372Z,40.63
2019-02-16T19:56:28.115Z,37.87
2019-02-16T19:59:14.579Z,37.83
2019-02-16T20:01:44.830Z,35.97
2019-02-16T20:04:17.350Z,41.30
2019-02-16T20:06:53.171Z,36.63
2019-02-16T20:09:26.081Z,40.23
2019-02-16T20:11:56.184Z,38.50
2019-02-16T20:14:26.173Z,42.77
2019-02-16T20:17:05.540Z,39.60
2019-02-16T20:19:53.643Z,34.73
2019-02-16T20:22:35.700Z,38.20
2019-02-16T20:25:17.677Z,38.50
2019-02-16T20:27:59.702Z,36.20
2019-02-16T20:30:46.131Z,35.63
2019-02-16T20:33:31.203Z,35.83
2019-02-16T20:36:01.777Z,33.53
2019-02-16T20:38:31.801Z,32.10
2019-02-16T20:41:16.770Z,29.97
2019-02-16T20:44:04.666Z,34.83
2019-02-16T20:46:37.302Z,39.93
2019-02-16T20:49:23.256Z,42.70
2019-02-16T20:51:53.248Z,42.53
2019-02-16T20:54:23.284Z,37.73
2019-02-16T20:56:53.271Z,45.03
2019-02-16T20:59:26.511Z,45.73
2019-02-16T21:02:02.937Z,41.47
2019-02-16T21:04:34.783Z,46.37
2019-02-16T21:07:11.394Z,47.37
2019-02-16T21:09:47.541Z,42.83
2019-02-16T21:12:17.536Z,44.97
2019-02-16T21:14:56.585Z,41.13
2019-02-16T21:17:26.938Z,41.53
2019-02-16T21:20:13.775Z,44.70
2019-02-16T21:23:01.053Z,42.23
2019-02-16T21:25:32.459Z,37.97
2019-02-16T21:28:12.156Z,35.17
2019-02-16T21:30:51.298Z,34.13
2019-02-16T21:33:21.568Z,33.83
2019-02-16T21:35:57.304Z,42.80
2019-02-16T21:38:43.774Z,35.47
2019-02-16T21:41:16.530Z,40.00
2019-02-16T21:43:50.028Z,44.40
2019-02-16T21:46:25.919Z,45.03
2019-02-16T21:48:56.177Z,42.70
2019-02-16T21:51:38.844Z,39.90
2019-02-16T21:54:28.264Z,42.53
2019-02-16T21:57:04.922Z,40.53
2019-02-16T21:59:43.707Z,42.23
2019-02-16T22:02:14.699Z,46.73
2019-02-16T22:04:57.283Z,48.90
2019-02-16T22:07:29.772Z,55.40
2019-02-16T22:10:03.107Z,45.27
2019-02-16T22:12:48.370Z,39.33
2019-02-16T22:15:16.873Z,39.77
2019-02-16T22:17:45.547Z,41.30
2019-02-16T22:20:14.010Z,40.73
2019-02-16T22:22:43.147Z,35.73
2019-02-16T22:25:13.654Z,39.33
2019-02-16T22:27:42.420Z,41.37
2019-02-16T22:30:11.744Z,42.60
2019-02-16T22:32:40.400Z,41.07
2019-02-16T22:35:08.855Z,36.27
2019-02-16T22:37:37.281Z,44.27
2019-02-16T22:40:07.308Z,45.30
2019-02-16T22:42:36.101Z,46.70
2019-02-16T22:45:07.524Z,46.40
2019-02-16T22:47:36.006Z,43.73
2019-02-16T22:50:08.037Z,39.53
2019-02-16T22:52:36.804Z,44.60
2019-02-16T22:55:07.636Z,37.40
2019-02-16T22:57:36.448Z,38.57
2019-02-16T23:00:08.146Z,40.67
2019-02-16T23:02:36.934Z,41.93
2019-02-16T23:05:06.434Z,37.00
2019-02-16T23:07:35.128Z,43.07
2019-02-16T23:10:05.291Z,34.60
2019-02-16T23:12:33.910Z,38.20
2019-02-16T23:15:02.399Z,37.63
2019-02-16T23:17:31.065Z,42.53
2019-02-16T23:19:59.508Z,40.10
2019-02-16T23:22:27.958Z,35.00
2019-02-16T23:24:56.384Z,33.80
2019-02-16T23:27:24.869Z,36.43
2019-02-16T23:29:53.289Z,37.00
2019-02-16T23:32:21.676Z,38.57
2019-02-16T23:34:50.031Z,37.83
2019-02-16T23:37:18.480Z,46.27
2019-02-16T23:39:46.837Z,35.40
2019-02-16T23:42:15.220Z,43.17
2019-02-16T23:44:43.579Z,41.07
2019-02-16T23:47:11.961Z,37.33
2019-02-16T23:49:40.314Z,37.93
2019-02-16T23:52:08.700Z,37.97
2019-02-16T23:54:37.056Z,33.83
2019-02-16T23:57:05.511Z,37.13
2019-02-16T23:59:33.865Z,37.23
